National Weather Service United States Department of Commerce


000
FTPA31 PHFO 261733
TAFSTU
TAF
NSTU 261733Z 2618/2718 VRB06KT P6SM VCSH FEW018 SCT035 OVC080=


899
SAZS31 NSTU 262251
MTRPPG
METAR NSTU 262250Z 36008KT 12SM FEW020TCU SCT040 BKN100 BKN200 31/25
A2978 RMK TCU SW-W SLP086 T03090252=


METAR Formatted Surface Weather Observation  Issued: 03/26/2019 11:51:23 AM SST

NSTU Observation History

 

Significant Weather Charts